Terminal Aerodrome Forecast
Issued by NWS

Home | Current Version | Previous Version | Graphics & Text | Print | Product List | Glossary On
Versions: 1 2 3 4 5 6 7 8 9 10 11 12 13 14 15 16
000
FTUS43 KGRB 261100
TAFATW
TAF
KATW 261127Z 2612/2712 30006KT P6SM BKN040 BKN150
     FM261600 29009G14KT P6SM SCT040 BKN200
     FM270200 32003KT P6SM BKN150
     FM270700 03003KT P6SM SCT070 BKN120=

USA.gov is the U.S. government's official web portal to all federal, state and local government web resources and services.